Lincoln, NE (68528)

3:34 PM CDT on June 03, 2015 (GMT -0500)
Capitol Beach | | Change Station
CLOSE
Current Station
Personal Weather Station
Location: Lincoln, NE
Elevation: 1134 ft
Nearby Weather Stations

Elev 1134 ft 40.82 °N, 96.73 °W | Updated 27 seconds ago

Partly Cloudy
Partly Cloudy
83.1 °F
Feels Like 85 °F
N
0.0
Wind Variable Wind from WNW
Gusts 4.0 mph

Today
High -- | Low -- °F
--% Chance of Precip.
Yesterday
High -- | Low -- °F
Precip. -- in
5:57 AM 8:53 PM
Full, 98% visible
Pressure 29.90 in
Visibility 10.0 miles
Clouds Scattered Clouds 2800 ft
Heat Index 85 °F
Dew Point 66 °F
Humidity 57%
Rainfall 0.75 in
Snow Depth Not available.
UV 8 out of 12
Pollen 2.80 out of 12
Air Quality Not available.
Flu Activity No Activity
METAR KLNK 031954Z 24004KT 10SM SCT028 25/18 A2993 RMK AO2 SLP125 T02500178

More Conditions Fewer Conditions

Pressure 29.90 in
Visibility 10.0 miles
Clouds Scattered Clouds 2800 ft
Heat Index 85 °F
Dew Point 66 °F
Humidity 57%
Rainfall 0.75 in
Snow Depth Not available.
UV 8 out of 12
Pollen 2.80 out of 12
Air Quality Not available.
Flu Activity No Activity
METAR KLNK 031954Z 24004KT 10SM SCT028 25/18 A2993 RMK AO2 SLP125 T02500178

More Conditions Fewer Conditions

10-Day Weather Forecast

×

Almanac

Astronomy

Jun. 03, 2015 Rise Set
Actual Time
Civil Twilight
Nautical Twilight
Astronomical Twilight
Moon
Length of Visible Light
Length of Day
Tomorrow will be .
, % of the Moon is Illuminated

Today's Extremes

State Highs State Lows

Community

WunderPhotos

Upload Photos

1,826,277 photos uploaded!

WunderBlogs® & News

Nearby

Air Quality

  Air Quality AQ Index Pollutant
Not available.

Snow Depth

Station Depth Elevation

Earthquake Activity

City Distance Mag. Time & Date
Minimum magnitude displayed is 2.5.

Coastal Water Temperatures

Place Temperature

Stations

Nearby Weather Stations

Station Location Temp. Windchill Dew Point Humidity Wind Precip. Elev Updated Type